sensor_id;sensor_type;location;lat;lon;timestamp;P1;durP1;ratioP1;P2;durP2;ratioP2
46348;SDS011;32057;47.830;19.046;2022-11-15T00:00:48;12.68;;;6.43;;
46348;SDS011;32057;47.830;19.046;2022-11-15T00:03:15;12.63;;;7.57;;
46348;SDS011;32057;47.830;19.046;2022-11-15T00:05:41;9.52;;;6.82;;
46348;SDS011;32057;47.830;19.046;2022-11-15T00:08:07;6.45;;;5.32;;
46348;SDS011;32057;47.830;19.046;2022-11-15T00:10:32;12.52;;;5.65;;
46348;SDS011;32057;47.830;19.046;2022-11-15T00:12:58;8.35;;;5.82;;
46348;SDS011;32057;47.830;19.046;2022-11-15T00:15:23;10.60;;;6.50;;
46348;SDS011;32057;47.830;19.046;2022-11-15T00:17:49;15.30;;;7.85;;
46348;SDS011;32057;47.830;19.046;2022-11-15T00:20:16;10.57;;;6.22;;
46348;SDS011;32057;47.830;19.046;2022-11-15T00:22:42;24.17;;;6.50;;
46348;SDS011;32057;47.830;19.046;2022-11-15T00:25:08;16.65;;;5.88;;
46348;SDS011;32057;47.830;19.046;2022-11-15T00:27:33;6.93;;;6.22;;
46348;SDS011;32057;47.830;19.046;2022-11-15T00:29:59;10.85;;;6.30;;
46348;SDS011;32057;47.830;19.046;2022-11-15T00:32:24;8.10;;;5.10;;
46348;SDS011;32057;47.830;19.046;2022-11-15T00:34:49;6.35;;;4.28;;
46348;SDS011;32057;47.830;19.046;2022-11-15T00:37:15;9.95;;;5.68;;
46348;SDS011;32057;47.830;19.046;2022-11-15T00:39:40;8.80;;;6.40;;
46348;SDS011;32057;47.830;19.046;2022-11-15T00:42:06;10.23;;;6.10;;
46348;SDS011;32057;47.830;19.046;2022-11-15T00:44:31;10.05;;;6.53;;
46348;SDS011;32057;47.830;19.046;2022-11-15T00:46:57;7.82;;;4.50;;
46348;SDS011;32057;47.830;19.046;2022-11-15T00:49:22;6.70;;;4.75;;
46348;SDS011;32057;47.830;19.046;2022-11-15T00:51:47;9.75;;;6.40;;
46348;SDS011;32057;47.830;19.046;2022-11-15T00:54:13;8.13;;;5.90;;
46348;SDS011;32057;47.830;19.046;2022-11-15T00:56:38;14.43;;;6.50;;
46348;SDS011;32057;47.830;19.046;2022-11-15T00:59:04;18.25;;;5.85;;
46348;SDS011;32057;47.830;19.046;2022-11-15T01:01:29;11.27;;;7.97;;
46348;SDS011;32057;47.830;19.046;2022-11-15T01:03:54;13.82;;;6.88;;
46348;SDS011;32057;47.830;19.046;2022-11-15T01:06:20;13.55;;;5.68;;
46348;SDS011;32057;47.830;19.046;2022-11-15T01:08:45;7.75;;;4.70;;
46348;SDS011;32057;47.830;19.046;2022-11-15T01:11:11;7.18;;;6.53;;
46348;SDS011;32057;47.830;19.046;2022-11-15T01:13:37;5.20;;;4.22;;
46348;SDS011;32057;47.830;19.046;2022-11-15T01:16:08;4.95;;;4.53;;
46348;SDS011;32057;47.830;19.046;2022-11-15T01:18:38;7.47;;;4.40;;
46348;SDS011;32057;47.830;19.046;2022-11-15T01:21:05;7.05;;;4.82;;
46348;SDS011;32057;47.830;19.046;2022-11-15T01:23:31;7.30;;;5.43;;
46348;SDS011;32057;47.830;19.046;2022-11-15T01:26:03;8.38;;;5.00;;
46348;SDS011;32057;47.830;19.046;2022-11-15T01:28:31;4.80;;;3.85;;
46348;SDS011;32057;47.830;19.046;2022-11-15T01:30:58;8.10;;;5.18;;
46348;SDS011;32057;47.830;19.046;2022-11-15T01:33:25;8.88;;;5.13;;
46348;SDS011;32057;47.830;19.046;2022-11-15T01:35:50;9.30;;;5.35;;
46348;SDS011;32057;47.830;19.046;2022-11-15T01:38:16;4.38;;;3.70;;
46348;SDS011;32057;47.830;19.046;2022-11-15T01:40:41;6.78;;;4.82;;
46348;SDS011;32057;47.830;19.046;2022-11-15T01:43:20;5.53;;;4.22;;
46348;SDS011;32057;47.830;19.046;2022-11-15T01:45:49;8.23;;;4.53;;
46348;SDS011;32057;47.830;19.046;2022-11-15T01:48:18;8.07;;;4.47;;
46348;SDS011;32057;47.830;19.046;2022-11-15T01:50:44;4.70;;;3.13;;
46348;SDS011;32057;47.830;19.046;2022-11-15T01:53:10;7.22;;;5.25;;
46348;SDS011;32057;47.830;19.046;2022-11-15T01:55:35;8.43;;;4.63;;
46348;SDS011;32057;47.830;19.046;2022-11-15T01:58:02;9.95;;;4.97;;
46348;SDS011;32057;47.830;19.046;2022-11-15T02:00:30;6.90;;;4.95;;
46348;SDS011;32057;47.830;19.046;2022-11-15T02:02:56;10.75;;;5.20;;
46348;SDS011;32057;47.830;19.046;2022-11-15T02:05:22;5.82;;;4.85;;
46348;SDS011;32057;47.830;19.046;2022-11-15T02:07:47;3.67;;;3.35;;
46348;SDS011;32057;47.830;19.046;2022-11-15T02:10:16;5.07;;;4.60;;
46348;SDS011;32057;47.830;19.046;2022-11-15T02:12:44;7.00;;;5.25;;
46348;SDS011;32057;47.830;19.046;2022-11-15T02:15:10;8.73;;;5.22;;
46348;SDS011;32057;47.830;19.046;2022-11-15T02:20:31;9.55;;;5.95;;
46348;SDS011;32057;47.830;19.046;2022-11-15T02:31:41;8.70;;;6.07;;
46348;SDS011;32057;47.830;19.046;2022-11-15T02:37:16;4.88;;;3.92;;
46348;SDS011;32057;47.830;19.046;2022-11-15T02:39:56;7.05;;;4.05;;
46348;SDS011;32057;47.830;19.046;2022-11-15T02:42:36;5.30;;;4.80;;
46348;SDS011;32057;47.830;19.046;2022-11-15T02:45:27;7.78;;;4.18;;
46348;SDS011;32057;47.830;19.046;2022-11-15T02:47:55;7.45;;;4.65;;
46348;SDS011;32057;47.830;19.046;2022-11-15T02:50:25;4.05;;;3.55;;
46348;SDS011;32057;47.830;19.046;2022-11-15T02:52:53;7.65;;;4.63;;
46348;SDS011;32057;47.830;19.046;2022-11-15T02:55:30;4.93;;;3.95;;
46348;SDS011;32057;47.830;19.046;2022-11-15T03:00:23;6.63;;;3.83;;
46348;SDS011;32057;47.830;19.046;2022-11-15T03:05:37;5.28;;;3.47;;
46348;SDS011;32057;47.830;19.046;2022-11-15T03:08:27;6.53;;;4.00;;
46348;SDS011;32057;47.830;19.046;2022-11-15T03:11:31;5.55;;;4.18;;
46348;SDS011;32057;47.830;19.046;2022-11-15T03:19:12;4.60;;;4.15;;
46348;SDS011;32057;47.830;19.046;2022-11-15T03:21:39;4.55;;;3.38;;
46348;SDS011;32057;47.830;19.046;2022-11-15T03:24:06;5.43;;;3.67;;
46348;SDS011;32057;47.830;19.046;2022-11-15T03:26:34;5.65;;;3.45;;
46348;SDS011;32057;47.830;19.046;2022-11-15T03:29:13;7.15;;;5.18;;
46348;SDS011;32057;47.830;19.046;2022-11-15T03:31:44;4.03;;;3.42;;
46348;SDS011;32057;47.830;19.046;2022-11-15T03:34:19;5.65;;;3.53;;
46348;SDS011;32057;47.830;19.046;2022-11-15T03:36:49;4.13;;;3.67;;
46348;SDS011;32057;47.830;19.046;2022-11-15T03:39:17;5.57;;;4.70;;
46348;SDS011;32057;47.830;19.046;2022-11-15T03:41:56;4.00;;;3.42;;
46348;SDS011;32057;47.830;19.046;2022-11-15T03:49:36;3.50;;;2.97;;
46348;SDS011;32057;47.830;19.046;2022-11-15T03:52:06;4.68;;;3.80;;
46348;SDS011;32057;47.830;19.046;2022-11-15T03:54:32;5.47;;;4.15;;
46348;SDS011;32057;47.830;19.046;2022-11-15T03:56:57;3.75;;;2.88;;
46348;SDS011;32057;47.830;19.046;2022-11-15T03:59:23;5.68;;;3.97;;
46348;SDS011;32057;47.830;19.046;2022-11-15T04:01:48;4.43;;;3.53;;
46348;SDS011;32057;47.830;19.046;2022-11-15T04:04:14;4.32;;;3.03;;
46348;SDS011;32057;47.830;19.046;2022-11-15T04:06:39;4.18;;;3.78;;
46348;SDS011;32057;47.830;19.046;2022-11-15T04:09:05;4.78;;;4.35;;
46348;SDS011;32057;47.830;19.046;2022-11-15T04:11:30;6.63;;;4.53;;
46348;SDS011;32057;47.830;19.046;2022-11-15T04:13:56;6.85;;;4.43;;
46348;SDS011;32057;47.830;19.046;2022-11-15T04:16:21;6.85;;;4.70;;
46348;SDS011;32057;47.830;19.046;2022-11-15T04:18:46;3.75;;;3.08;;
46348;SDS011;32057;47.830;19.046;2022-11-15T04:21:32;4.20;;;3.80;;
46348;SDS011;32057;47.830;19.046;2022-11-15T04:24:16;5.93;;;3.10;;
46348;SDS011;32057;47.830;19.046;2022-11-15T04:26:41;4.85;;;3.13;;
46348;SDS011;32057;47.830;19.046;2022-11-15T04:29:07;6.50;;;3.67;;
46348;SDS011;32057;47.830;19.046;2022-11-15T04:31:51;4.70;;;3.95;;
46348;SDS011;32057;47.830;19.046;2022-11-15T04:34:16;4.55;;;3.67;;
46348;SDS011;32057;47.830;19.046;2022-11-15T04:36:41;6.45;;;3.28;;
46348;SDS011;32057;47.830;19.046;2022-11-15T04:39:26;6.07;;;4.82;;
46348;SDS011;32057;47.830;19.046;2022-11-15T04:41:51;3.42;;;3.13;;
46348;SDS011;32057;47.830;19.046;2022-11-15T04:44:16;5.00;;;3.63;;
46348;SDS011;32057;47.830;19.046;2022-11-15T04:46:42;3.88;;;3.50;;
46348;SDS011;32057;47.830;19.046;2022-11-15T04:49:07;5.78;;;3.85;;
46348;SDS011;32057;47.830;19.046;2022-11-15T04:51:32;5.07;;;4.40;;
46348;SDS011;32057;47.830;19.046;2022-11-15T04:53:59;3.83;;;2.83;;
46348;SDS011;32057;47.830;19.046;2022-11-15T04:56:25;3.42;;;3.13;;
46348;SDS011;32057;47.830;19.046;2022-11-15T04:58:50;5.13;;;3.25;;
46348;SDS011;32057;47.830;19.046;2022-11-15T05:01:15;3.78;;;3.40;;
46348;SDS011;32057;47.830;19.046;2022-11-15T05:03:42;3.50;;;3.20;;
46348;SDS011;32057;47.830;19.046;2022-11-15T05:06:26;4.15;;;3.72;;
46348;SDS011;32057;47.830;19.046;2022-11-15T05:08:52;4.15;;;3.75;;
46348;SDS011;32057;47.830;19.046;2022-11-15T05:11:17;5.80;;;4.93;;
46348;SDS011;32057;47.830;19.046;2022-11-15T05:13:43;3.70;;;3.40;;
46348;SDS011;32057;47.830;19.046;2022-11-15T05:16:08;5.25;;;3.75;;
46348;SDS011;32057;47.830;19.046;2022-11-15T05:18:34;4.88;;;4.32;;
46348;SDS011;32057;47.830;19.046;2022-11-15T05:21:06;4.88;;;4.03;;
46348;SDS011;32057;47.830;19.046;2022-11-15T05:23:36;4.32;;;3.92;;
46348;SDS011;32057;47.830;19.046;2022-11-15T05:26:02;5.55;;;4.38;;
46348;SDS011;32057;47.830;19.046;2022-11-15T05:28:29;5.68;;;3.60;;
46348;SDS011;32057;47.830;19.046;2022-11-15T05:31:00;4.88;;;4.38;;
46348;SDS011;32057;47.830;19.046;2022-11-15T05:33:26;4.63;;;3.92;;
46348;SDS011;32057;47.830;19.046;2022-11-15T05:35:57;3.40;;;3.08;;
46348;SDS011;32057;47.830;19.046;2022-11-15T05:38:28;5.43;;;4.22;;
46348;SDS011;32057;47.830;19.046;2022-11-15T05:40:54;5.60;;;3.95;;
46348;SDS011;32057;47.830;19.046;2022-11-15T05:43:20;6.57;;;4.60;;
46348;SDS011;32057;47.830;19.046;2022-11-15T05:45:46;4.30;;;3.90;;
46348;SDS011;32057;47.830;19.046;2022-11-15T05:48:12;5.90;;;4.38;;
46348;SDS011;32057;47.830;19.046;2022-11-15T05:50:39;11.80;;;4.10;;
46348;SDS011;32057;47.830;19.046;2022-11-15T05:53:08;5.60;;;4.22;;
46348;SDS011;32057;47.830;19.046;2022-11-15T05:55:36;5.60;;;4.57;;
46348;SDS011;32057;47.830;19.046;2022-11-15T05:58:03;3.95;;;3.63;;
46348;SDS011;32057;47.830;19.046;2022-11-15T06:00:29;5.47;;;4.38;;
46348;SDS011;32057;47.830;19.046;2022-11-15T06:02:54;4.93;;;4.47;;
46348;SDS011;32057;47.830;19.046;2022-11-15T06:05:20;6.38;;;4.55;;
46348;SDS011;32057;47.830;19.046;2022-11-15T06:07:45;6.15;;;4.30;;
46348;SDS011;32057;47.830;19.046;2022-11-15T06:10:11;7.80;;;4.57;;
46348;SDS011;32057;47.830;19.046;2022-11-15T06:12:36;5.97;;;5.32;;
46348;SDS011;32057;47.830;19.046;2022-11-15T06:15:01;4.32;;;3.70;;
46348;SDS011;32057;47.830;19.046;2022-11-15T06:17:27;6.10;;;4.50;;
46348;SDS011;32057;47.830;19.046;2022-11-15T06:19:53;6.75;;;5.05;;
46348;SDS011;32057;47.830;19.046;2022-11-15T06:22:19;6.80;;;3.58;;
46348;SDS011;32057;47.830;19.046;2022-11-15T06:24:44;6.95;;;5.50;;
46348;SDS011;32057;47.830;19.046;2022-11-15T06:27:10;7.72;;;6.50;;
46348;SDS011;32057;47.830;19.046;2022-11-15T06:29:36;7.15;;;5.43;;
46348;SDS011;32057;47.830;19.046;2022-11-15T06:32:01;7.25;;;5.68;;
46348;SDS011;32057;47.830;19.046;2022-11-15T06:34:27;6.25;;;5.45;;
46348;SDS011;32057;47.830;19.046;2022-11-15T06:36:52;5.13;;;4.63;;
46348;SDS011;32057;47.830;19.046;2022-11-15T06:39:18;4.88;;;4.32;;
46348;SDS011;32057;47.830;19.046;2022-11-15T06:41:43;5.10;;;4.05;;
46348;SDS011;32057;47.830;19.046;2022-11-15T06:44:09;5.78;;;4.30;;
46348;SDS011;32057;47.830;19.046;2022-11-15T06:46:34;5.63;;;4.35;;
46348;SDS011;32057;47.830;19.046;2022-11-15T06:48:59;6.88;;;5.72;;
46348;SDS011;32057;47.830;19.046;2022-11-15T06:51:25;5.25;;;4.75;;
46348;SDS011;32057;47.830;19.046;2022-11-15T06:53:50;4.95;;;4.45;;
46348;SDS011;32057;47.830;19.046;2022-11-15T06:56:15;5.35;;;4.38;;
46348;SDS011;32057;47.830;19.046;2022-11-15T06:58:41;6.07;;;4.05;;
46348;SDS011;32057;47.830;19.046;2022-11-15T07:01:08;5.60;;;5.00;;
46348;SDS011;32057;47.830;19.046;2022-11-15T07:03:35;5.90;;;4.95;;
46348;SDS011;32057;47.830;19.046;2022-11-15T07:06:03;8.55;;;5.78;;
46348;SDS011;32057;47.830;19.046;2022-11-15T07:08:29;5.07;;;4.40;;
46348;SDS011;32057;47.830;19.046;2022-11-15T07:10:58;6.95;;;4.82;;
46348;SDS011;32057;47.830;19.046;2022-11-15T07:13:26;4.85;;;4.45;;
46348;SDS011;32057;47.830;19.046;2022-11-15T07:15:53;3.70;;;3.40;;
46348;SDS011;32057;47.830;19.046;2022-11-15T07:18:18;7.65;;;4.45;;
46348;SDS011;32057;47.830;19.046;2022-11-15T07:20:44;4.63;;;3.55;;
46348;SDS011;32057;47.830;19.046;2022-11-15T07:23:09;8.82;;;5.72;;
46348;SDS011;32057;47.830;19.046;2022-11-15T07:25:35;6.15;;;4.97;;
46348;SDS011;32057;47.830;19.046;2022-11-15T07:28:00;4.40;;;3.95;;
46348;SDS011;32057;47.830;19.046;2022-11-15T07:30:26;5.30;;;4.65;;
46348;SDS011;32057;47.830;19.046;2022-11-15T07:32:54;4.55;;;4.15;;
46348;SDS011;32057;47.830;19.046;2022-11-15T07:35:20;5.18;;;3.92;;
46348;SDS011;32057;47.830;19.046;2022-11-15T07:37:52;5.47;;;4.82;;
46348;SDS011;32057;47.830;19.046;2022-11-15T07:40:28;5.53;;;4.57;;
46348;SDS011;32057;47.830;19.046;2022-11-15T07:43:01;6.25;;;4.82;;
46348;SDS011;32057;47.830;19.046;2022-11-15T07:45:28;4.40;;;3.67;;
46348;SDS011;32057;47.830;19.046;2022-11-15T07:47:54;4.68;;;3.85;;
46348;SDS011;32057;47.830;19.046;2022-11-15T07:50:21;5.63;;;4.47;;
46348;SDS011;32057;47.830;19.046;2022-11-15T07:52:50;5.43;;;3.97;;
46348;SDS011;32057;47.830;19.046;2022-11-15T07:55:19;5.10;;;4.05;;
46348;SDS011;32057;47.830;19.046;2022-11-15T07:57:44;4.45;;;4.05;;
46348;SDS011;32057;47.830;19.046;2022-11-15T08:00:10;4.90;;;3.55;;
46348;SDS011;32057;47.830;19.046;2022-11-15T08:02:36;5.85;;;5.20;;
46348;SDS011;32057;47.830;19.046;2022-11-15T08:05:01;4.95;;;3.88;;
46348;SDS011;32057;47.830;19.046;2022-11-15T08:07:30;5.45;;;4.70;;
46348;SDS011;32057;47.830;19.046;2022-11-15T08:09:56;7.07;;;4.57;;
46348;SDS011;32057;47.830;19.046;2022-11-15T08:12:22;4.53;;;4.13;;
46348;SDS011;32057;47.830;19.046;2022-11-15T08:14:48;5.38;;;4.82;;
46348;SDS011;32057;47.830;19.046;2022-11-15T08:17:13;7.80;;;5.63;;
46348;SDS011;32057;47.830;19.046;2022-11-15T08:19:39;9.27;;;4.00;;
46348;SDS011;32057;47.830;19.046;2022-11-15T08:22:04;7.30;;;4.88;;
46348;SDS011;32057;47.830;19.046;2022-11-15T08:24:29;6.55;;;5.82;;
46348;SDS011;32057;47.830;19.046;2022-11-15T08:26:55;6.93;;;5.25;;
46348;SDS011;32057;47.830;19.046;2022-11-15T08:29:20;6.47;;;5.75;;
46348;SDS011;32057;47.830;19.046;2022-11-15T08:31:46;7.18;;;6.25;;
46348;SDS011;32057;47.830;19.046;2022-11-15T08:34:11;6.80;;;6.00;;
46348;SDS011;32057;47.830;19.046;2022-11-15T08:36:36;10.77;;;7.00;;
46348;SDS011;32057;47.830;19.046;2022-11-15T08:39:02;6.32;;;5.13;;
46348;SDS011;32057;47.830;19.046;2022-11-15T08:41:29;8.23;;;6.55;;
46348;SDS011;32057;47.830;19.046;2022-11-15T08:43:56;5.90;;;5.00;;
46348;SDS011;32057;47.830;19.046;2022-11-15T08:46:22;6.65;;;4.97;;
46348;SDS011;32057;47.830;19.046;2022-11-15T08:48:48;5.88;;;5.35;;
46348;SDS011;32057;47.830;19.046;2022-11-15T08:51:13;6.22;;;5.30;;
46348;SDS011;32057;47.830;19.046;2022-11-15T08:53:38;5.53;;;5.03;;
46348;SDS011;32057;47.830;19.046;2022-11-15T08:56:08;5.75;;;5.18;;
46348;SDS011;32057;47.830;19.046;2022-11-15T08:58:38;8.40;;;6.03;;
46348;SDS011;32057;47.830;19.046;2022-11-15T09:01:04;8.30;;;6.28;;
46348;SDS011;32057;47.830;19.046;2022-11-15T09:03:30;6.38;;;5.60;;
46348;SDS011;32057;47.830;19.046;2022-11-15T09:05:56;7.13;;;5.93;;
46348;SDS011;32057;47.830;19.046;2022-11-15T09:08:23;8.18;;;6.72;;
46348;SDS011;32057;47.830;19.046;2022-11-15T09:10:49;9.13;;;6.15;;
46348;SDS011;32057;47.830;19.046;2022-11-15T09:13:14;7.20;;;6.50;;
46348;SDS011;32057;47.830;19.046;2022-11-15T09:15:40;9.32;;;6.43;;
46348;SDS011;32057;47.830;19.046;2022-11-15T09:18:05;8.27;;;6.57;;
46348;SDS011;32057;47.830;19.046;2022-11-15T09:20:30;8.75;;;6.18;;
46348;SDS011;32057;47.830;19.046;2022-11-15T09:23:03;8.95;;;6.05;;
46348;SDS011;32057;47.830;19.046;2022-11-15T09:27:55;13.18;;;5.93;;
46348;SDS011;32057;47.830;19.046;2022-11-15T09:30:20;11.57;;;6.70;;
46348;SDS011;32057;47.830;19.046;2022-11-15T09:32:46;7.78;;;5.63;;
46348;SDS011;32057;47.830;19.046;2022-11-15T09:35:12;6.25;;;5.30;;
46348;SDS011;32057;47.830;19.046;2022-11-15T09:37:38;8.55;;;6.43;;
46348;SDS011;32057;47.830;19.046;2022-11-15T09:40:03;9.57;;;7.05;;
46348;SDS011;32057;47.830;19.046;2022-11-15T09:42:47;8.57;;;6.50;;
46348;SDS011;32057;47.830;19.046;2022-11-15T09:53:13;6.30;;;4.88;;
46348;SDS011;32057;47.830;19.046;2022-11-15T09:55:48;6.97;;;5.15;;
46348;SDS011;32057;47.830;19.046;2022-11-15T09:58:36;9.13;;;6.18;;
46348;SDS011;32057;47.830;19.046;2022-11-15T10:01:16;5.60;;;5.00;;
46348;SDS011;32057;47.830;19.046;2022-11-15T10:03:50;8.25;;;5.78;;
46348;SDS011;32057;47.830;19.046;2022-11-15T10:06:21;6.95;;;6.15;;
46348;SDS011;32057;47.830;19.046;2022-11-15T10:11:24;8.63;;;6.63;;
46348;SDS011;32057;47.830;19.046;2022-11-15T10:13:53;8.10;;;5.82;;
46348;SDS011;32057;47.830;19.046;2022-11-15T10:24:28;12.23;;;6.75;;
46348;SDS011;32057;47.830;19.046;2022-11-15T10:26:59;9.27;;;6.90;;
46348;SDS011;32057;47.830;19.046;2022-11-15T10:29:25;13.93;;;9.30;;
46348;SDS011;32057;47.830;19.046;2022-11-15T10:31:51;13.10;;;5.53;;
46348;SDS011;32057;47.830;19.046;2022-11-15T10:34:17;8.55;;;6.93;;
46348;SDS011;32057;47.830;19.046;2022-11-15T10:36:45;7.82;;;5.78;;
46348;SDS011;32057;47.830;19.046;2022-11-15T10:39:13;9.63;;;6.45;;
46348;SDS011;32057;47.830;19.046;2022-11-15T10:41:40;12.68;;;8.88;;
46348;SDS011;32057;47.830;19.046;2022-11-15T10:46:42;8.60;;;6.40;;
46348;SDS011;32057;47.830;19.046;2022-11-15T10:49:20;7.57;;;6.70;;
46348;SDS011;32057;47.830;19.046;2022-11-15T10:56:53;8.98;;;6.95;;
46348;SDS011;32057;47.830;19.046;2022-11-15T10:59:31;8.05;;;6.63;;
46348;SDS011;32057;47.830;19.046;2022-11-15T11:02:00;9.18;;;6.63;;
46348;SDS011;32057;47.830;19.046;2022-11-15T11:04:25;10.20;;;7.95;;
46348;SDS011;32057;47.830;19.046;2022-11-15T11:06:58;9.38;;;7.68;;
46348;SDS011;32057;47.830;19.046;2022-11-15T11:11:53;8.30;;;6.63;;
46348;SDS011;32057;47.830;19.046;2022-11-15T11:16:52;8.70;;;6.97;;
46348;SDS011;32057;47.830;19.046;2022-11-15T11:25:01;9.57;;;6.10;;
46348;SDS011;32057;47.830;19.046;2022-11-15T11:30:12;8.35;;;7.45;;
46348;SDS011;32057;47.830;19.046;2022-11-15T11:48:55;13.77;;;7.25;;
46348;SDS011;32057;47.830;19.046;2022-11-15T11:54:14;9.45;;;6.68;;
46348;SDS011;32057;47.830;19.046;2022-11-15T11:56:55;8.95;;;7.53;;
46348;SDS011;32057;47.830;19.046;2022-11-15T11:59:36;8.90;;;6.63;;
46348;SDS011;32057;47.830;19.046;2022-11-15T12:02:21;10.98;;;7.53;;
46348;SDS011;32057;47.830;19.046;2022-11-15T12:04:56;12.63;;;9.15;;
46348;SDS011;32057;47.830;19.046;2022-11-15T12:07:29;12.80;;;7.75;;
46348;SDS011;32057;47.830;19.046;2022-11-15T12:15:32;11.20;;;8.10;;
46348;SDS011;32057;47.830;19.046;2022-11-15T12:18:04;9.40;;;8.45;;
46348;SDS011;32057;47.830;19.046;2022-11-15T12:20:33;11.85;;;8.25;;
46348;SDS011;32057;47.830;19.046;2022-11-15T12:23:06;10.65;;;8.30;;
46348;SDS011;32057;47.830;19.046;2022-11-15T12:25:48;11.30;;;8.73;;
46348;SDS011;32057;47.830;19.046;2022-11-15T12:31:05;12.25;;;8.93;;
46348;SDS011;32057;47.830;19.046;2022-11-15T12:33:42;15.82;;;7.00;;
46348;SDS011;32057;47.830;19.046;2022-11-15T12:41:25;10.93;;;8.77;;
46348;SDS011;32057;47.830;19.046;2022-11-15T12:43:53;7.68;;;6.47;;
46348;SDS011;32057;47.830;19.046;2022-11-15T12:46:20;7.80;;;7.00;;
46348;SDS011;32057;47.830;19.046;2022-11-15T12:48:50;12.82;;;8.80;;
46348;SDS011;32057;47.830;19.046;2022-11-15T12:51:19;11.65;;;8.20;;
46348;SDS011;32057;47.830;19.046;2022-11-15T12:53:46;12.85;;;7.57;;
46348;SDS011;32057;47.830;19.046;2022-11-15T12:58:56;10.63;;;8.30;;
46348;SDS011;32057;47.830;19.046;2022-11-15T13:06:46;12.77;;;9.32;;
46348;SDS011;32057;47.830;19.046;2022-11-15T13:11:54;11.15;;;8.13;;
46348;SDS011;32057;47.830;19.046;2022-11-15T13:17:16;9.93;;;7.65;;
46348;SDS011;32057;47.830;19.046;2022-11-15T13:19:42;16.75;;;8.15;;
46348;SDS011;32057;47.830;19.046;2022-11-15T13:22:11;9.90;;;7.88;;
46348;SDS011;32057;47.830;19.046;2022-11-15T13:24:55;11.23;;;7.25;;
46348;SDS011;32057;47.830;19.046;2022-11-15T13:27:21;9.43;;;7.68;;
46348;SDS011;32057;47.830;19.046;2022-11-15T13:29:47;14.68;;;9.43;;
46348;SDS011;32057;47.830;19.046;2022-11-15T13:32:13;11.27;;;7.70;;
46348;SDS011;32057;47.830;19.046;2022-11-15T13:34:42;11.60;;;7.45;;
46348;SDS011;32057;47.830;19.046;2022-11-15T13:39:46;10.35;;;8.85;;
46348;SDS011;32057;47.830;19.046;2022-11-15T13:42:16;8.55;;;7.13;;
46348;SDS011;32057;47.830;19.046;2022-11-15T13:44:56;12.40;;;8.93;;
46348;SDS011;32057;47.830;19.046;2022-11-15T13:47:25;11.35;;;8.35;;
46348;SDS011;32057;47.830;19.046;2022-11-15T13:49:52;9.90;;;8.57;;
46348;SDS011;32057;47.830;19.046;2022-11-15T13:52:18;10.75;;;7.68;;
46348;SDS011;32057;47.830;19.046;2022-11-15T13:57:14;8.77;;;7.03;;
46348;SDS011;32057;47.830;19.046;2022-11-15T13:59:48;8.80;;;7.30;;
46348;SDS011;32057;47.830;19.046;2022-11-15T14:02:17;8.65;;;7.05;;
46348;SDS011;32057;47.830;19.046;2022-11-15T14:04:45;8.05;;;6.57;;
46348;SDS011;32057;47.830;19.046;2022-11-15T14:07:16;10.00;;;7.93;;
46348;SDS011;32057;47.830;19.046;2022-11-15T14:09:44;7.65;;;6.47;;
46348;SDS011;32057;47.830;19.046;2022-11-15T14:12:24;11.10;;;7.65;;
46348;SDS011;32057;47.830;19.046;2022-11-15T14:14:54;10.63;;;6.30;;
46348;SDS011;32057;47.830;19.046;2022-11-15T14:17:32;9.25;;;7.25;;
46348;SDS011;32057;47.830;19.046;2022-11-15T14:19:59;9.23;;;6.78;;
46348;SDS011;32057;47.830;19.046;2022-11-15T14:22:26;10.85;;;7.47;;
46348;SDS011;32057;47.830;19.046;2022-11-15T14:28:07;12.77;;;7.63;;
46348;SDS011;32057;47.830;19.046;2022-11-15T14:30:41;11.48;;;7.75;;
46348;SDS011;32057;47.830;19.046;2022-11-15T14:33:17;11.57;;;8.15;;
46348;SDS011;32057;47.830;19.046;2022-11-15T14:35:46;10.02;;;8.25;;
46348;SDS011;32057;47.830;19.046;2022-11-15T14:38:12;9.82;;;6.10;;
46348;SDS011;32057;47.830;19.046;2022-11-15T14:40:38;8.98;;;6.25;;
46348;SDS011;32057;47.830;19.046;2022-11-15T14:43:03;8.15;;;6.43;;
46348;SDS011;32057;47.830;19.046;2022-11-15T14:45:29;8.55;;;6.88;;
46348;SDS011;32057;47.830;19.046;2022-11-15T14:47:54;9.40;;;7.28;;
46348;SDS011;32057;47.830;19.046;2022-11-15T14:50:20;9.05;;;6.93;;
46348;SDS011;32057;47.830;19.046;2022-11-15T14:52:47;8.77;;;6.20;;
46348;SDS011;32057;47.830;19.046;2022-11-15T14:55:24;7.10;;;5.45;;
46348;SDS011;32057;47.830;19.046;2022-11-15T14:57:54;8.40;;;6.13;;
46348;SDS011;32057;47.830;19.046;2022-11-15T15:00:20;8.85;;;6.20;;
46348;SDS011;32057;47.830;19.046;2022-11-15T15:02:47;8.02;;;5.07;;
46348;SDS011;32057;47.830;19.046;2022-11-15T15:07:43;8.52;;;6.82;;
46348;SDS011;32057;47.830;19.046;2022-11-15T15:10:09;17.15;;;4.65;;
46348;SDS011;32057;47.830;19.046;2022-11-15T15:12:35;5.82;;;5.03;;
46348;SDS011;32057;47.830;19.046;2022-11-15T15:15:01;9.90;;;7.45;;
46348;SDS011;32057;47.830;19.046;2022-11-15T15:17:26;10.10;;;6.85;;
46348;SDS011;32057;47.830;19.046;2022-11-15T15:19:51;8.75;;;7.75;;
46348;SDS011;32057;47.830;19.046;2022-11-15T15:22:17;8.93;;;5.93;;
46348;SDS011;32057;47.830;19.046;2022-11-15T15:24:48;7.40;;;6.10;;
46348;SDS011;32057;47.830;19.046;2022-11-15T15:27:13;6.15;;;4.95;;
46348;SDS011;32057;47.830;19.046;2022-11-15T15:29:39;7.00;;;5.43;;
46348;SDS011;32057;47.830;19.046;2022-11-15T15:32:05;7.55;;;5.72;;
46348;SDS011;32057;47.830;19.046;2022-11-15T15:34:31;8.13;;;5.85;;
46348;SDS011;32057;47.830;19.046;2022-11-15T15:39:53;8.63;;;6.63;;
46348;SDS011;32057;47.830;19.046;2022-11-15T15:42:20;7.43;;;6.43;;
46348;SDS011;32057;47.830;19.046;2022-11-15T15:44:47;7.45;;;5.70;;
46348;SDS011;32057;47.830;19.046;2022-11-15T15:47:13;9.85;;;5.88;;
46348;SDS011;32057;47.830;19.046;2022-11-15T15:49:42;8.75;;;6.72;;
46348;SDS011;32057;47.830;19.046;2022-11-15T15:52:07;9.20;;;6.20;;
46348;SDS011;32057;47.830;19.046;2022-11-15T15:54:33;9.95;;;6.97;;
46348;SDS011;32057;47.830;19.046;2022-11-15T15:56:58;8.07;;;6.55;;
46348;SDS011;32057;47.830;19.046;2022-11-15T15:59:24;19.02;;;6.60;;
46348;SDS011;32057;47.830;19.046;2022-11-15T16:01:49;11.82;;;7.85;;
46348;SDS011;32057;47.830;19.046;2022-11-15T16:04:14;8.13;;;6.80;;
46348;SDS011;32057;47.830;19.046;2022-11-15T16:06:40;7.65;;;6.22;;
46348;SDS011;32057;47.830;19.046;2022-11-15T16:09:13;8.40;;;5.82;;
46348;SDS011;32057;47.830;19.046;2022-11-15T16:11:41;11.80;;;7.53;;
46348;SDS011;32057;47.830;19.046;2022-11-15T16:14:07;13.20;;;8.73;;
46348;SDS011;32057;47.830;19.046;2022-11-15T16:16:33;9.70;;;7.07;;
46348;SDS011;32057;47.830;19.046;2022-11-15T16:19:00;7.25;;;6.30;;
46348;SDS011;32057;47.830;19.046;2022-11-15T16:21:26;9.82;;;6.13;;
46348;SDS011;32057;47.830;19.046;2022-11-15T16:23:51;10.77;;;8.68;;
46348;SDS011;32057;47.830;19.046;2022-11-15T16:26:21;9.43;;;6.78;;
46348;SDS011;32057;47.830;19.046;2022-11-15T16:28:47;10.27;;;6.97;;
46348;SDS011;32057;47.830;19.046;2022-11-15T16:31:13;11.60;;;7.32;;
46348;SDS011;32057;47.830;19.046;2022-11-15T16:33:38;10.52;;;7.95;;
46348;SDS011;32057;47.830;19.046;2022-11-15T16:36:05;12.15;;;9.13;;
46348;SDS011;32057;47.830;19.046;2022-11-15T16:38:37;7.53;;;5.90;;
46348;SDS011;32057;47.830;19.046;2022-11-15T16:41:04;8.70;;;6.45;;
46348;SDS011;32057;47.830;19.046;2022-11-15T16:43:29;9.50;;;7.20;;
46348;SDS011;32057;47.830;19.046;2022-11-15T16:45:55;9.95;;;8.27;;
46348;SDS011;32057;47.830;19.046;2022-11-15T16:48:24;16.35;;;10.45;;